Time;durP1;ratioP1;P1;durP2;ratioP2;P2;SDS_P1;SDS_P2;PMS_P1;PMS_P2;Temp;Humidity;BMP_temperature;BMP_pressure;BME280_temperature;BME280_humidity;BME280_pressure;Samples;Min_cycle;Max_cycle;Signal;HPM_P1;HPM_P2
2022/03/15 00:00:35;;;;;;;8.57;4.57;;;;;;;9.94;53.45;100137.38;4141319;28;20241;-40
2022/03/15 00:02:37;;;;;;;10.47;5.00;;;;;;;9.96;53.46;100136.25;4139095;28;20261;-41
2022/03/15 00:04:39;;;;;;;8.53;4.17;;;;;;;10.34;53.00;100097.19;4132505;28;20692;-39
2022/03/15 00:06:40;;;;;;;7.50;4.73;;;;;;;10.34;52.96;100104.34;4137573;28;20236;-38
2022/03/15 00:08:44;;;;;;;6.17;4.70;;;;;;;10.36;52.92;100097.03;4138697;28;20238;-42
2022/03/15 00:10:48;;;;;;;8.77;4.50;;;;;;;10.17;52.96;100114.75;4141142;28;20279;-44
2022/03/15 00:12:51;;;;;;;8.73;4.27;;;;;;;10.11;53.62;100112.72;4142979;28;20242;-41
2022/03/15 00:14:53;;;;;;;5.50;4.40;;;;;;;9.85;53.81;100126.63;4144281;28;20242;-41
2022/03/15 00:16:55;;;;;;;9.17;4.40;;;;;;;10.27;53.31;100088.13;4142726;28;20233;-38
2022/03/15 00:18:57;;;;;;;8.07;3.93;;;;;;;9.92;53.41;100110.13;4144007;28;20581;-44
2022/03/15 00:21:04;;;;;;;5.93;4.20;;;;;;;9.99;53.19;100111.22;4120009;28;20237;-42
2022/03/15 00:23:06;;;;;;;9.87;5.60;;;;;;;9.79;54.40;100121.91;4132779;28;20266;-43
2022/03/15 00:25:10;;;;;;;8.30;5.53;;;;;;;9.92;53.84;100118.91;4135649;28;20715;-41
2022/03/15 00:27:14;;;;;;;11.87;5.90;;;;;;;9.42;55.13;100125.34;4143992;28;20241;-40
2022/03/15 00:29:18;;;;;;;9.43;4.83;;;;;;;9.92;53.80;100089.69;4132608;28;20230;-42
2022/03/15 00:31:20;;;;;;;11.40;6.70;;;;;;;9.63;54.39;100111.06;4135563;28;20273;-43
2022/03/15 00:33:23;;;;;;;10.43;6.27;;;;;;;9.79;54.24;100094.50;4134921;28;20242;-40
2022/03/15 00:35:25;;;;;;;6.27;4.70;;;;;;;9.81;54.26;100087.25;4128375;28;20445;-39
2022/03/15 00:37:26;;;;;;;6.97;4.67;;;;;;;9.35;55.33;100079.09;4142378;28;20526;-38
2022/03/15 00:39:28;;;;;;;8.33;5.53;;;;;;;9.32;55.65;100085.53;4139527;28;20702;-42
2022/03/15 00:41:31;;;;;;;9.53;5.17;;;;;;;9.51;54.77;100084.63;4142785;28;20236;-42
2022/03/15 00:43:33;;;;;;;8.43;5.40;;;;;;;9.37;55.42;100071.84;4138877;28;20244;-42
2022/03/15 00:45:35;;;;;;;8.03;4.97;;;;;;;9.17;55.52;100088.78;4136648;28;20289;-39
2022/03/15 00:47:36;;;;;;;6.80;4.23;;;;;;;9.51;55.07;100055.44;4143202;28;20236;-40
2022/03/15 00:49:38;;;;;;;6.57;4.80;;;;;;;9.69;54.40;100063.53;4134816;28;20269;-42
2022/03/15 00:51:40;;;;;;;10.97;5.20;;;;;;;9.57;54.75;100061.16;4143599;28;20268;-41
2022/03/15 00:53:42;;;;;;;6.77;4.90;;;;;;;9.61;54.77;100059.94;4135107;28;20236;-39
2022/03/15 00:55:44;;;;;;;5.03;4.30;;;;;;;9.47;55.13;100067.34;4136222;28;20229;-42
2022/03/15 00:57:46;;;;;;;10.07;4.70;;;;;;;9.47;54.90;100072.66;4134750;28;20230;-42
2022/03/15 00:59:48;;;;;;;7.47;4.33;;;;;;;9.59;54.32;100076.00;4135191;28;20237;-43
2022/03/15 01:01:49;;;;;;;8.63;5.10;;;;;;;9.49;54.65;100078.66;4140176;28;20291;-42
2022/03/15 01:03:51;;;;;;;10.80;4.90;;;;;;;9.81;54.17;100056.22;4142879;28;20233;-44
2022/03/15 01:05:53;;;;;;;8.63;5.03;;;;;;;9.46;54.78;100078.09;4129247;28;20239;-41
2022/03/15 01:07:55;;;;;;;8.83;4.53;;;;;;;9.72;54.04;100067.69;4133817;28;20241;-41
2022/03/15 01:09:56;;;;;;;7.57;4.47;;;;;;;9.94;54.08;100050.56;4135123;28;20245;-43
2022/03/15 01:11:59;;;;;;;10.33;4.67;;;;;;;10.17;53.23;100040.34;4142954;28;20241;-43
2022/03/15 01:14:01;;;;;;;6.20;4.50;;;;;;;10.16;53.02;100044.00;4140597;28;20244;-38
2022/03/15 01:16:02;;;;;;;8.80;4.70;;;;;;;10.06;53.31;100041.41;4142625;28;20269;-43
2022/03/15 01:18:04;;;;;;;6.60;4.90;;;;;;;9.85;53.51;100054.91;4127404;28;20244;-43
2022/03/15 01:20:08;;;;;;;7.53;4.97;;;;;;;9.75;54.09;100061.28;4134631;28;20311;-42
2022/03/15 01:22:10;;;;;;;8.27;5.03;;;;;;;9.82;53.88;100060.56;4127442;28;20715;-42
2022/03/15 01:24:12;;;;;;;7.13;4.83;;;;;;;9.84;54.04;100061.25;4142535;28;20240;-42
2022/03/15 01:26:14;;;;;;;5.90;4.30;;;;;;;9.66;54.15;100070.94;4141471;28;20241;-42
2022/03/15 01:28:15;;;;;;;8.23;4.80;;;;;;;9.71;54.32;100057.25;4142644;28;20229;-41
2022/03/15 01:30:17;;;;;;;8.60;5.00;;;;;;;9.75;54.16;100055.97;4141093;28;20584;-42
2022/03/15 01:32:19;;;;;;;7.77;4.63;;;;;;;9.52;54.62;100062.44;4135794;28;20715;-43
2022/03/15 01:34:22;;;;;;;7.57;4.40;;;;;;;9.54;54.51;100074.72;4131959;28;20270;-43
2022/03/15 01:36:24;;;;;;;7.43;4.70;;;;;;;9.46;54.62;100062.19;4131929;28;20221;-42
2022/03/15 01:38:26;;;;;;;5.50;4.83;;;;;;;9.40;54.80;100068.91;4142202;28;20225;-39
2022/03/15 01:40:28;;;;;;;7.57;5.37;;;;;;;9.40;54.86;100063.59;4139150;28;20233;-43
2022/03/15 01:42:30;;;;;;;7.37;4.93;;;;;;;9.30;55.17;100073.38;4137612;28;20307;-43
2022/03/15 01:44:33;;;;;;;6.93;4.90;;;;;;;9.40;55.00;100057.44;4138128;28;20592;-42
2022/03/15 01:46:35;;;;;;;7.93;5.00;;;;;;;9.29;54.95;100063.75;4133051;28;20256;-44
2022/03/15 01:48:36;;;;;;;10.80;4.90;;;;;;;9.39;55.08;100051.28;4134474;28;20239;-44
2022/03/15 01:50:38;;;;;;;7.67;5.07;;;;;;;9.54;54.44;100048.16;4134795;28;20597;-41
2022/03/15 01:52:40;;;;;;;7.83;4.90;;;;;;;9.29;55.16;100080.50;4133295;28;20241;-43
2022/03/15 01:54:42;;;;;;;6.77;4.80;;;;;;;9.26;55.43;100072.00;4133990;28;20761;-43
2022/03/15 01:56:44;;;;;;;9.87;5.20;;;;;;;9.28;55.37;100062.94;4130781;28;20660;-43
2022/03/15 01:58:46;;;;;;;8.67;5.13;;;;;;;9.56;54.89;100051.53;4133850;28;20269;-43
2022/03/15 02:00:48;;;;;;;8.33;5.17;;;;;;;9.20;55.36;100070.75;4134155;28;20299;-41
2022/03/15 02:02:50;;;;;;;6.40;4.77;;;;;;;9.01;55.93;100071.59;4134287;28;21039;-41
2022/03/15 02:04:52;;;;;;;7.27;5.30;;;;;;;9.01;55.83;100068.94;4122903;28;20274;-43
2022/03/15 02:07:09;;;;;;;8.70;5.13;;;;;;;9.28;55.55;100054.97;4139668;28;20233;-41
2022/03/15 02:09:15;;;;;;;8.43;5.00;;;;;;;9.13;55.57;100057.22;4128460;28;20566;-44
2022/03/15 02:11:17;;;;;;;7.27;5.50;;;;;;;8.93;56.50;100063.53;4140789;28;20244;-43
2022/03/15 02:13:18;;;;;;;8.57;5.53;;;;;;;9.08;55.87;100059.47;4127077;28;20242;-43
2022/03/15 02:15:20;;;;;;;8.77;5.63;;;;;;;9.21;55.60;100055.66;4133224;28;20698;-44
2022/03/15 02:17:22;;;;;;;7.93;5.20;;;;;;;9.20;55.83;100043.38;4134929;28;20695;-42
2022/03/15 02:19:24;;;;;;;9.10;6.40;;;;;;;9.10;55.82;100054.84;4142641;28;20247;-43
2022/03/15 02:21:27;;;;;;;7.67;6.13;;;;;;;8.89;56.11;100062.13;4133100;28;20233;-41
2022/03/15 02:23:29;;;;;;;10.73;6.50;;;;;;;8.90;56.49;100042.59;4132898;28;20252;-43
2022/03/15 02:25:30;;;;;;;13.17;6.60;;;;;;;8.80;56.31;100055.03;4141633;28;20245;-40
2022/03/15 02:27:32;;;;;;;9.30;5.83;;;;;;;8.98;56.38;100040.06;4141266;28;20225;-43
2022/03/15 02:29:33;;;;;;;10.23;6.77;;;;;;;9.06;56.00;100034.88;4141633;28;20762;-39
2022/03/15 02:31:35;;;;;;;11.70;6.40;;;;;;;9.36;55.64;100016.25;4137613;28;20233;-41
2022/03/15 02:33:40;;;;;;;11.13;6.00;;;;;;;8.91;56.67;100050.41;4141524;28;20240;-42
2022/03/15 02:35:42;;;;;;;8.90;6.00;;;;;;;8.78;56.89;100052.50;4127484;28;20304;-42
2022/03/15 02:37:44;;;;;;;8.03;5.80;;;;;;;9.23;55.96;100021.88;4136205;28;20257;-41
2022/03/15 02:39:45;;;;;;;10.13;5.93;;;;;;;8.43;57.93;100055.69;4139375;28;20229;-44
2022/03/15 02:41:47;;;;;;;8.97;5.40;;;;;;;8.94;56.52;100026.25;4141370;28;20235;-41
2022/03/15 02:43:49;;;;;;;8.40;5.10;;;;;;;8.99;56.21;100027.66;4135520;28;20683;-43
2022/03/15 02:45:51;;;;;;;10.13;5.23;;;;;;;9.32;55.52;100010.41;4136504;28;20234;-44
2022/03/15 02:47:52;;;;;;;8.77;5.27;;;;;;;9.28;55.99;100011.66;4136899;28;20230;-42
2022/03/15 02:49:54;;;;;;;8.27;6.00;;;;;;;9.79;54.42;99989.13;4134436;28;20244;-45
2022/03/15 02:51:56;;;;;;;8.33;5.23;;;;;;;9.61;54.91;100012.13;4133690;28;20238;-43
2022/03/15 02:53:58;;;;;;;9.43;5.37;;;;;;;9.90;54.45;99984.59;4124758;28;20300;-41
2022/03/15 02:56:00;;;;;;;7.60;5.27;;;;;;;9.32;55.20;100018.38;4130477;28;20716;-42
2022/03/15 02:58:02;;;;;;;8.80;5.17;;;;;;;9.49;55.05;100020.25;4140522;28;20237;-42
2022/03/15 03:00:05;;;;;;;8.80;5.90;;;;;;;9.68;54.84;100019.34;4125762;28;20264;-43
2022/03/15 03:02:08;;;;;;;6.80;5.23;;;;;;;9.94;54.03;99996.59;4134028;28;20272;-42
2022/03/15 03:04:11;;;;;;;8.23;5.03;;;;;;;10.04;53.55;99994.72;4141453;28;20699;-42
2022/03/15 03:06:12;;;;;;;7.57;5.37;;;;;;;10.34;53.12;99974.09;4125072;28;20256;-43
2022/03/15 03:08:16;;;;;;;8.33;5.07;;;;;;;10.44;52.71;99953.56;4133037;28;20312;-42
2022/03/15 03:10:17;;;;;;;8.70;5.47;;;;;;;10.12;53.47;100000.13;4132388;28;20233;-44
2022/03/15 03:12:19;;;;;;;6.60;5.13;;;;;;;9.59;54.34;100035.34;4139531;28;20237;-44
2022/03/15 03:14:22;;;;;;;10.77;5.40;;;;;;;9.66;55.06;100029.28;4132841;28;20261;-40
2022/03/15 03:16:26;;;;;;;7.80;5.43;;;;;;;9.82;54.83;100014.53;4135336;28;20710;-42
2022/03/15 03:18:32;;;;;;;7.77;5.80;;;;;;;9.82;54.37;100010.09;4138781;28;20230;-41
2022/03/15 03:20:35;;;;;;;10.50;6.77;;;;;;;10.46;53.47;99972.03;4122393;28;20296;-44
2022/03/15 03:22:37;;;;;;;8.07;5.73;;;;;;;8.03;58.29;100084.69;4135985;28;20304;-42
2022/03/15 03:24:39;;;;;;;9.30;6.07;;;;;;;9.24;57.08;100023.53;4135701;28;20691;-42
2022/03/15 03:26:41;;;;;;;12.57;6.73;;;;;;;10.35;53.63;99968.63;4140309;28;20247;-42
2022/03/15 03:28:44;;;;;;;12.63;6.83;;;;;;;10.62;52.82;99956.22;4131018;28;20646;-42
2022/03/15 03:30:47;;;;;;;8.13;6.37;;;;;;;10.73;52.52;99969.25;4130434;28;20260;-42
2022/03/15 03:32:48;;;;;;;11.43;6.70;;;;;;;9.10;56.96;100075.25;4115269;28;20301;-44
2022/03/15 03:34:51;;;;;;;7.60;6.17;;;;;;;9.42;56.14;100032.44;4124852;28;20674;-43
2022/03/15 03:36:52;;;;;;;8.93;6.83;;;;;;;10.10;54.30;100009.22;4140034;28;20682;-43
2022/03/15 03:39:04;;;;;;;8.73;6.77;;;;;;;10.20;53.69;100008.16;4137473;28;20336;-41
2022/03/15 03:41:06;;;;;;;9.77;6.97;;;;;;;10.53;53.02;99981.06;4125609;28;20237;-41
2022/03/15 03:43:08;;;;;;;10.60;6.77;;;;;;;10.63;52.52;99987.13;4125164;28;20698;-44
2022/03/15 03:45:10;;;;;;;12.53;6.80;;;;;;;10.53;52.66;99997.00;4133534;28;20662;-41
2022/03/15 03:47:12;;;;;;;9.40;7.10;;;;;;;8.88;56.91;100105.50;4140716;28;20240;-43
2022/03/15 03:49:14;;;;;;;10.73;6.60;;;;;;;8.70;57.97;100100.91;4134505;28;20291;-43
2022/03/15 03:51:17;;;;;;;8.33;6.27;;;;;;;9.70;55.19;100029.84;4140747;28;20772;-44
2022/03/15 03:53:21;;;;;;;8.73;6.20;;;;;;;10.14;53.85;100003.44;4140858;28;20244;-42
2022/03/15 03:55:23;;;;;;;11.00;7.90;;;;;;;10.24;53.43;100008.69;4133132;28;20267;-40
2022/03/15 03:57:24;;;;;;;13.53;8.30;;;;;;;10.77;52.32;99962.69;4137720;28;20221;-42
2022/03/15 03:59:26;;;;;;;11.13;7.60;;;;;;;10.36;53.07;99996.88;4132899;28;20796;-42
2022/03/15 04:01:29;;;;;;;9.67;7.03;;;;;;;10.06;53.81;100016.66;4133427;28;20229;-43
2022/03/15 04:03:33;;;;;;;10.77;7.30;;;;;;;10.33;53.01;99991.00;4139331;28;20249;-40
2022/03/15 04:05:40;;;;;;;10.83;6.27;;;;;;;10.14;53.70;100010.59;4132604;28;20673;-43
2022/03/15 04:07:43;;;;;;;9.60;6.40;;;;;;;10.28;53.35;99994.16;4133442;28;20721;-40
2022/03/15 04:09:45;;;;;;;8.27;6.13;;;;;;;10.44;53.07;99980.16;4133724;28;20386;-41
2022/03/15 04:11:47;;;;;;;8.53;5.80;;;;;;;10.15;53.44;100009.63;4135456;28;20230;-42
2022/03/15 04:13:49;;;;;;;10.80;6.07;;;;;;;10.31;53.59;99990.34;4144006;28;20244;-43
2022/03/15 04:15:51;;;;;;;9.10;5.63;;;;;;;10.24;53.43;100008.69;4135937;28;20299;-41
2022/03/15 04:17:53;;;;;;;8.37;6.40;;;;;;;10.13;53.45;100003.63;4136156;28;20326;-41
2022/03/15 04:19:54;;;;;;;7.47;5.40;;;;;;;9.72;54.35;100033.19;4135670;28;20230;-44
2022/03/15 04:21:56;;;;;;;10.03;6.33;;;;;;;9.62;54.97;100037.69;4142229;28;20605;-41
2022/03/15 04:23:58;;;;;;;9.00;5.87;;;;;;;9.86;54.34;100011.47;4135230;28;20750;-41
2022/03/15 04:26:00;;;;;;;9.50;6.47;;;;;;;9.62;55.02;100037.69;4136018;28;20451;-45
2022/03/15 04:28:02;;;;;;;11.57;6.40;;;;;;;9.23;56.00;100053.69;4135923;28;20238;-41
2022/03/15 04:30:05;;;;;;;9.07;6.73;;;;;;;9.25;56.05;100047.28;4135071;28;20295;-41
2022/03/15 04:32:11;;;;;;;9.17;6.70;;;;;;;9.45;55.36;100037.47;4136905;28;20730;-42
2022/03/15 04:34:12;;;;;;;8.40;6.30;;;;;;;9.64;55.21;100025.13;4142475;28;20273;-42
2022/03/15 04:36:14;;;;;;;11.93;6.10;;;;;;;9.31;55.92;100043.22;4129330;28;22679;-40
2022/03/15 04:38:16;;;;;;;9.40;5.80;;;;;;;9.47;55.73;100024.88;4130201;28;20232;-40
2022/03/15 04:40:19;;;;;;;11.40;6.83;;;;;;;9.52;55.67;100009.34;4136066;28;20626;-42
2022/03/15 04:42:20;;;;;;;10.63;6.53;;;;;;;9.41;55.88;100027.28;4136870;28;20233;-41
2022/03/15 04:44:22;;;;;;;9.07;6.50;;;;;;;9.32;55.55;100016.53;4136923;28;20229;-43
2022/03/15 04:46:24;;;;;;;9.73;6.67;;;;;;;9.23;56.00;100025.34;4137977;28;20237;-43
2022/03/15 04:48:26;;;;;;;8.90;6.20;;;;;;;8.94;56.93;100018.28;4142328;28;20725;-41
2022/03/15 04:50:28;;;;;;;9.47;6.40;;;;;;;9.41;55.77;99998.91;4135594;28;20303;-43
2022/03/15 04:52:30;;;;;;;8.80;6.10;;;;;;;9.96;54.17;99973.38;4143134;28;20225;-43
2022/03/15 04:54:31;;;;;;;9.17;6.13;;;;;;;9.78;54.70;99981.31;4138808;28;20230;-44
2022/03/15 04:56:34;;;;;;;9.23;7.00;;;;;;;9.78;54.67;99982.13;4139190;28;20333;-43
2022/03/15 04:58:37;;;;;;;9.53;6.60;;;;;;;9.90;54.44;99976.63;4143539;28;20268;-41
2022/03/15 05:00:40;;;;;;;8.67;6.40;;;;;;;9.77;55.15;99985.78;4135176;28;20235;-43
2022/03/15 05:02:44;;;;;;;11.30;7.10;;;;;;;9.60;55.22;100013.13;4142697;28;20327;-41
2022/03/15 05:04:45;;;;;;;10.47;6.80;;;;;;;8.30;57.98;100062.03;4126152;28;20563;-43
2022/03/15 05:06:47;;;;;;;10.27;6.23;;;;;;;8.64;58.47;100003.38;4138645;28;20595;-41
2022/03/15 05:08:49;;;;;;;10.70;7.10;;;;;;;9.89;54.87;99962.50;4134999;28;20241;-43
2022/03/15 05:11:09;;;;;;;9.23;6.40;;;;;;;9.98;54.83;99964.28;4142997;28;20249;-42
2022/03/15 05:13:11;;;;;;;9.50;7.07;;;;;;;10.21;53.82;99948.75;4135381;28;20774;-43
2022/03/15 05:15:13;;;;;;;8.33;6.53;;;;;;;10.46;53.28;99935.66;4142543;28;20553;-42
2022/03/15 05:17:14;;;;;;;9.63;6.83;;;;;;;10.27;53.45;99957.91;4143104;28;20620;-42
2022/03/15 05:19:16;;;;;;;10.13;7.27;;;;;;;10.12;53.60;99980.69;4135363;28;20305;-44
2022/03/15 05:21:19;;;;;;;8.40;6.20;;;;;;;10.41;53.03;99952.06;4134170;28;20274;-40
2022/03/15 05:23:21;;;;;;;12.63;6.70;;;;;;;9.97;54.17;99997.13;4141577;28;20255;-43
2022/03/15 05:25:22;;;;;;;11.40;6.90;;;;;;;10.20;53.82;99975.47;4142747;28;20676;-43
2022/03/15 05:27:25;;;;;;;10.10;6.77;;;;;;;10.26;53.55;99974.84;4138930;28;20317;-44
2022/03/15 05:29:27;;;;;;;8.57;5.73;;;;;;;9.90;54.16;100008.50;4138325;28;20283;-43
2022/03/15 05:31:31;;;;;;;7.30;5.83;;;;;;;9.90;54.55;100004.03;4134862;28;20275;-41
2022/03/15 05:33:33;;;;;;;8.20;5.93;;;;;;;10.05;54.16;99991.06;4142042;28;20244;-43
2022/03/15 05:35:35;;;;;;;8.73;6.90;;;;;;;10.02;54.12;99991.38;4128235;28;20264;-40
2022/03/15 05:37:37;;;;;;;9.97;6.77;;;;;;;10.21;53.61;99975.31;4142687;28;20699;-44
2022/03/15 05:39:39;;;;;;;10.07;6.83;;;;;;;10.16;53.63;99984.69;4123465;28;20238;-42
2022/03/15 05:41:41;;;;;;;8.27;5.93;;;;;;;10.13;53.56;99985.03;4139615;28;20670;-38
2022/03/15 05:43:42;;;;;;;11.53;6.87;;;;;;;9.82;54.36;99999.47;4137625;28;20241;-37
2022/03/15 05:45:44;;;;;;;9.97;6.00;;;;;;;9.60;55.06;100021.06;4141417;28;20244;-41
2022/03/15 05:47:46;;;;;;;7.47;6.37;;;;;;;9.97;54.17;100002.44;4141725;28;20286;-39
2022/03/15 05:49:48;;;;;;;8.57;5.80;;;;;;;9.48;55.19;100029.19;4141759;28;20258;-42
2022/03/15 05:51:49;;;;;;;12.37;6.83;;;;;;;8.94;56.51;100059.88;4133278;28;20237;-40
2022/03/15 05:53:51;;;;;;;8.80;6.53;;;;;;;9.13;56.56;100043.09;4130523;28;20673;-40
2022/03/15 05:55:53;;;;;;;8.60;6.90;;;;;;;9.96;54.74;99978.69;4111697;28;20260;-39
2022/03/15 05:57:54;;;;;;;9.63;6.00;;;;;;;9.87;54.43;99993.69;4139221;28;20224;-42
2022/03/15 05:59:56;;;;;;;9.53;6.07;;;;;;;10.21;53.85;99980.63;4133828;28;20774;-41
2022/03/15 06:01:58;;;;;;;8.07;6.10;;;;;;;10.21;53.98;99983.28;4141431;28;20230;-41
2022/03/15 06:04:00;;;;;;;9.13;5.67;;;;;;;9.49;55.83;100036.19;4127215;28;20241;-44
2022/03/15 06:06:01;;;;;;;8.43;6.07;;;;;;;9.62;55.48;100021.75;4127589;28;20521;-41
2022/03/15 06:08:03;;;;;;;9.20;5.77;;;;;;;9.87;54.92;100001.66;4142522;28;20233;-38
2022/03/15 06:10:08;;;;;;;8.93;6.00;;;;;;;9.91;54.87;100008.38;4126301;28;20288;-42
2022/03/15 06:12:10;;;;;;;8.33;5.50;;;;;;;10.32;53.56;99963.59;4139445;28;20233;-39
2022/03/15 06:14:12;;;;;;;7.80;5.40;;;;;;;10.27;53.78;99971.19;4142241;28;20286;-41
2022/03/15 06:16:14;;;;;;;8.10;5.43;;;;;;;8.76;57.64;100067.69;4133743;28;20234;-41
2022/03/15 06:18:16;;;;;;;8.87;5.80;;;;;;;8.93;58.46;100037.00;4123269;28;20236;-42
2022/03/15 06:20:18;;;;;;;9.83;7.60;;;;;;;8.77;58.69;100027.78;4133602;28;20241;-43
2022/03/15 06:22:20;;;;;;;9.33;7.13;;;;;;;9.07;57.98;100033.91;4129120;28;20238;-42
2022/03/15 06:24:23;;;;;;;11.43;8.23;;;;;;;9.40;56.91;100020.28;4133199;28;20589;-40
2022/03/15 06:26:26;;;;;;;11.20;7.90;;;;;;;8.51;59.42;100071.75;4136297;28;20296;-43
2022/03/15 06:28:27;;;;;;;12.70;7.87;;;;;;;8.31;60.35;100029.28;4137343;28;20233;-43
2022/03/15 06:30:29;;;;;;;16.20;10.30;;;;;;;8.30;60.44;100056.75;4131513;28;20307;-43
2022/03/15 06:32:32;;;;;;;14.50;9.57;;;;;;;8.14;61.58;100059.09;4129090;28;20615;-40
2022/03/15 06:34:34;;;;;;;14.77;10.97;;;;;;;8.04;61.63;100032.59;4121761;28;20255;-42
2022/03/15 06:36:35;;;;;;;17.30;12.50;;;;;;;7.67;63.25;100061.44;4129414;28;20245;-41
2022/03/15 06:38:41;;;;;;;19.23;14.63;;;;;;;9.11;59.18;99966.31;4133834;28;20692;-42
2022/03/15 06:40:49;;;;;;;17.50;14.30;;;;;;;9.09;58.45;100012.53;4139824;28;20240;-41
2022/03/15 06:42:53;;;;;;;17.97;12.50;;;;;;;8.63;59.76;100035.34;4137850;28;20307;-43
2022/03/15 06:44:54;;;;;;;19.33;14.63;;;;;;;8.86;58.70;100038.53;4134808;28;20248;-42
2022/03/15 06:46:56;;;;;;;19.27;15.13;;;;;;;8.65;60.02;100010.34;4131981;28;20511;-41
2022/03/15 06:48:59;;;;;;;114.33;54.80;;;;;;;9.49;57.19;99984.91;4140338;28;20745;-42
2022/03/15 06:51:02;;;;;;;59.30;32.17;;;;;;;10.06;55.23;99940.44;4128959;28;20609;-40
2022/03/15 06:53:04;;;;;;;32.20;19.40;;;;;;;10.47;54.13;99924.03;4125181;28;20683;-40
2022/03/15 06:55:06;;;;;;;19.33;12.53;;;;;;;9.91;55.68;99960.56;4140736;28;20233;-41
2022/03/15 06:57:08;;;;;;;20.23;13.30;;;;;;;9.76;56.48;99983.28;4125910;28;20248;-41
2022/03/15 06:59:09;;;;;;;15.27;11.53;;;;;;;8.49;60.40;100041.88;4141904;28;20241;-42
2022/03/15 07:01:11;;;;;;;12.73;9.07;;;;;;;9.52;57.42;99958.91;4140786;28;20273;-38
2022/03/15 07:03:14;;;;;;;9.37;6.77;;;;;;;10.39;54.90;99916.81;4140351;28;20616;-43
2022/03/15 07:05:17;;;;;;;16.37;10.97;;;;;;;9.44;57.38;99990.66;4121361;28;20238;-42
2022/03/15 07:07:19;;;;;;;21.63;13.87;;;;;;;9.18;57.79;100001.06;4130299;28;20233;-42
2022/03/15 07:09:20;;;;;;;21.70;14.50;;;;;;;7.61;62.19;100055.72;4139051;28;20418;-40
2022/03/15 07:11:23;;;;;;;21.73;13.80;;;;;;;7.88;61.25;100043.66;4130554;28;20333;-40
2022/03/15 07:13:24;;;;;;;15.57;10.33;;;;;;;8.38;61.61;99956.25;4136101;28;20237;-40
2022/03/15 07:15:26;;;;;;;14.93;9.20;;;;;;;9.05;59.00;99966.91;4138014;28;20233;-43
2022/03/15 07:17:31;;;;;;;16.47;11.70;;;;;;;8.77;59.56;99992.50;4129068;28;20240;-43
2022/03/15 07:19:33;;;;;;;12.93;9.93;;;;;;;8.91;60.41;99985.91;4137627;28;20678;-42
2022/03/15 07:21:34;;;;;;;14.47;10.30;;;;;;;9.10;59.90;99985.06;4128877;28;20234;-42
2022/03/15 07:23:36;;;;;;;18.23;11.20;;;;;;;9.59;58.88;99937.94;4129804;28;20228;-40
2022/03/15 07:25:38;;;;;;;17.23;11.27;;;;;;;9.14;59.07;99973.16;4133669;28;20299;-43
2022/03/15 07:27:40;;;;;;;16.37;10.77;;;;;;;9.19;60.05;99975.38;4140624;28;20263;-43
2022/03/15 07:29:42;;;;;;;20.67;11.17;;;;;;;9.40;59.46;99954.78;4133567;28;20226;-43
2022/03/15 07:31:44;;;;;;;13.43;11.20;;;;;;;8.80;60.55;99991.38;4136046;28;20575;-42
2022/03/15 07:33:45;;;;;;;11.90;10.00;;;;;;;8.98;60.07;99971.13;4137945;28;20319;-42
2022/03/15 07:35:47;;;;;;;11.70;9.40;;;;;;;8.67;60.66;99981.88;4126916;28;20629;-43
2022/03/15 07:37:55;;;;;;;11.37;8.10;;;;;;;8.37;61.44;99999.63;4133013;28;20236;-41
2022/03/15 07:39:57;;;;;;;14.13;9.97;;;;;;;7.92;62.10;100018.63;4132575;28;20239;-42
2022/03/15 07:42:02;;;;;;;13.47;9.97;;;;;;;9.26;60.09;99916.28;4125508;28;20288;-41
2022/03/15 07:44:03;;;;;;;13.67;10.43;;;;;;;9.48;59.34;99920.34;4126428;28;20250;-41
2022/03/15 07:46:05;;;;;;;16.57;12.30;;;;;;;10.24;57.46;99871.38;4139880;28;20625;-40
2022/03/15 07:48:07;;;;;;;20.30;12.43;;;;;;;10.66;56.06;99848.53;4128888;28;20328;-41
2022/03/15 07:50:09;;;;;;;25.97;18.07;;;;;;;10.50;56.36;99878.53;4136943;28;20259;-41
2022/03/15 07:52:13;;;;;;;28.87;18.67;;;;;;;10.92;55.01;99835.25;4128588;28;20233;-43
2022/03/15 07:54:16;;;;;;;24.10;15.77;;;;;;;10.57;55.84;99870.78;4144119;28;20249;-40
2022/03/15 07:56:17;;;;;;;20.53;14.63;;;;;;;10.23;55.62;99882.16;4143679;28;20670;-42
2022/03/15 07:58:19;;;;;;;21.43;14.67;;;;;;;10.34;56.39;99884.53;4143641;28;20241;-40
2022/03/15 08:00:21;;;;;;;19.47;11.13;;;;;;;9.82;57.60;99932.22;4136395;28;20234;-42
2022/03/15 08:02:22;;;;;;;14.87;9.80;;;;;;;9.52;58.30;99950.94;4136217;28;20612;-42
2022/03/15 08:04:24;;;;;;;16.70;10.17;;;;;;;9.70;59.10;99928.94;4132145;28;20227;-42
2022/03/15 08:06:26;;;;;;;15.80;9.63;;;;;;;9.35;60.33;99961.50;4130916;28;20259;-42
2022/03/15 08:08:28;;;;;;;16.13;9.63;;;;;;;8.97;61.67;99982.69;4139801;28;20229;-41
2022/03/15 08:10:30;;;;;;;14.47;8.40;;;;;;;9.51;59.97;99945.78;4143793;28;20238;-39
2022/03/15 08:12:31;;;;;;;14.37;9.07;;;;;;;10.01;58.84;99920.63;4135924;28;20294;-42
2022/03/15 08:14:33;;;;;;;16.57;9.23;;;;;;;10.35;58.55;99888.88;4131854;28;20225;-43
2022/03/15 08:16:35;;;;;;;10.23;6.67;;;;;;;10.57;57.04;99874.25;4127875;28;20241;-41
2022/03/15 08:18:37;;;;;;;8.77;6.83;;;;;;;10.65;56.73;99870.81;4136767;28;20237;-43
2022/03/15 08:20:40;;;;;;;8.40;6.70;;;;;;;10.70;56.86;99865.88;4136291;28;20237;-42
2022/03/15 08:22:42;;;;;;;8.70;6.50;;;;;;;9.94;59.13;99923.06;4141148;28;20307;-43
2022/03/15 08:24:43;;;;;;;10.87;6.93;;;;;;;9.66;59.49;99936.38;4136371;28;20546;-43
2022/03/15 08:26:45;;;;;;;10.67;7.70;;;;;;;10.38;58.58;99877.94;4129951;28;20635;-41
2022/03/15 08:28:48;;;;;;;13.20;7.27;;;;;;;10.32;58.87;99893.69;4139840;28;20706;-41
2022/03/15 08:30:51;;;;;;;11.23;7.10;;;;;;;9.95;59.38;99911.44;4140524;28;20234;-42
2022/03/15 08:32:53;;;;;;;9.43;6.93;;;;;;;10.40;58.44;99881.28;4133991;28;20245;-39
2022/03/15 08:34:55;;;;;;;9.30;6.67;;;;;;;10.66;58.22;99867.16;4129790;28;20728;-40
2022/03/15 08:36:57;;;;;;;12.03;6.70;;;;;;;9.42;61.67;99949.31;4134265;28;20851;-42
2022/03/15 08:38:59;;;;;;;12.07;8.00;;;;;;;10.28;59.26;99897.63;4135499;28;20264;-39
2022/03/15 08:41:01;;;;;;;9.77;6.37;;;;;;;9.91;60.61;99922.50;4143468;28;20241;-42
2022/03/15 08:43:03;;;;;;;15.57;10.93;;;;;;;9.19;62.24;99962.13;4138297;28;20236;-41
2022/03/15 08:45:06;;;;;;;19.57;15.03;;;;;;;9.03;64.33;99960.06;4127889;28;20233;-40
2022/03/15 08:47:08;;;;;;;19.10;14.43;;;;;;;8.35;66.06;99972.41;4127436;28;20884;-38
2022/03/15 08:49:10;;;;;;;17.60;13.47;;;;;;;7.73;67.35;99981.47;4138434;28;20740;-39
2022/03/15 08:51:12;;;;;;;17.43;12.57;;;;;;;7.35;70.76;100010.31;4134352;28;20659;-39
2022/03/15 08:53:14;;;;;;;10.93;8.27;;;;;;;7.44;71.53;99934.59;4136817;28;20245;-40
2022/03/15 08:55:16;;;;;;;10.77;7.43;;;;;;;6.90;70.19;99971.75;4134499;28;20605;-42
2022/03/15 08:57:18;;;;;;;11.10;7.17;;;;;;;7.03;72.49;99931.91;4135385;28;20273;-39
2022/03/15 08:59:20;;;;;;;9.50;7.50;;;;;;;6.69;71.92;100003.47;4135409;28;20246;-36
2022/03/15 09:01:22;;;;;;;11.57;7.23;;;;;;;7.47;70.80;99903.41;4132328;28;20238;-40
2022/03/15 09:03:35;;;;;;;11.93;7.30;;;;;;;6.72;73.26;99946.88;4139658;28;20606;-42
2022/03/15 09:05:37;;;;;;;13.97;7.90;;;;;;;6.99;71.51;99956.97;4129021;28;20252;-43
2022/03/15 09:07:40;;;;;;;9.60;7.47;;;;;;;7.62;69.87;99913.63;4134633;28;20715;-42
2022/03/15 09:09:42;;;;;;;10.57;8.03;;;;;;;6.65;71.53;99965.06;4131679;28;20226;-38
2022/03/15 09:11:45;;;;;;;12.90;7.60;;;;;;;7.44;69.74;99931.94;4134266;28;20242;-37
2022/03/15 09:13:47;;;;;;;9.47;7.90;;;;;;;6.69;73.35;99928.66;4141889;28;20299;-41
2022/03/15 09:15:49;;;;;;;12.47;7.37;;;;;;;7.26;70.42;99913.22;4134838;28;20245;-37
2022/03/15 09:17:51;;;;;;;10.50;7.40;;;;;;;7.76;70.33;99864.75;4124858;28;20237;-41
2022/03/15 09:19:57;;;;;;;10.77;7.73;;;;;;;5.82;75.43;99945.44;4134452;28;20325;-41
2022/03/15 09:22:03;;;;;;;12.60;7.83;;;;;;;6.35;74.73;99921.72;4127252;28;20430;-41
2022/03/15 09:24:05;;;;;;;14.57;7.23;;;;;;;6.69;75.00;99870.50;4134849;28;20731;-40
2022/03/15 09:26:07;;;;;;;10.93;7.57;;;;;;;6.24;75.05;99907.75;4131956;28;20428;-41
2022/03/15 09:28:10;;;;;;;10.03;7.43;;;;;;;8.06;70.10;99789.63;4134227;28;20237;-40
2022/03/15 09:30:13;;;;;;;12.27;7.80;;;;;;;6.93;71.47;99883.47;4135704;28;20233;-43
2022/03/15 09:32:15;;;;;;;10.83;7.50;;;;;;;6.84;71.94;99890.34;4128248;28;20734;-37